createdAt,value
2017-12-30T00:00:35.961Z,67.90
2017-12-30T00:03:04.873Z,68.40
2017-12-30T00:05:33.207Z,68.70
2017-12-30T00:14:07.251Z,68.40
2017-12-30T00:16:35.986Z,67.80
2017-12-30T00:19:12.322Z,68.10
2017-12-30T00:21:39.250Z,68.20
2017-12-30T00:24:13.954Z,67.50
2017-12-30T00:27:03.854Z,67.10
2017-12-30T00:29:30.819Z,67.40
2017-12-30T00:31:58.718Z,67.30
2017-12-30T00:34:25.577Z,66.60
2017-12-30T00:36:56.736Z,66.20
2017-12-30T00:39:23.598Z,66.30
2017-12-30T00:41:50.466Z,67.10
2017-12-30T00:44:17.378Z,67.20
2017-12-30T00:46:44.252Z,67.00
2017-12-30T00:49:11.121Z,67.30
2017-12-30T00:51:37.999Z,67.60
2017-12-30T00:54:04.894Z,67.10
2017-12-30T00:56:31.788Z,66.40
2017-12-30T00:58:58.649Z,65.50
2017-12-30T01:01:25.525Z,65.50
2017-12-30T01:03:53.401Z,64.90
2017-12-30T01:06:20.277Z,64.60
2017-12-30T01:08:47.171Z,64.20
2017-12-30T01:11:14.046Z,64.70
2017-12-30T01:13:40.882Z,64.70
2017-12-30T01:16:07.858Z,64.60
2017-12-30T01:18:34.678Z,64.80
2017-12-30T01:21:01.526Z,64.50
2017-12-30T01:23:28.405Z,64.40
2017-12-30T01:25:56.121Z,65.30
2017-12-30T01:28:22.989Z,65.20
2017-12-30T01:30:52.614Z,65.40
2017-12-30T01:33:19.558Z,65.40
2017-12-30T01:35:46.614Z,66.10
2017-12-30T01:38:13.502Z,66.10
2017-12-30T01:40:40.394Z,66.50
2017-12-30T01:43:10.512Z,67.60
2017-12-30T01:45:38.275Z,67.60
2017-12-30T01:48:06.794Z,67.80
2017-12-30T01:50:33.787Z,67.10
2017-12-30T01:53:00.645Z,66.60
2017-12-30T01:55:28.252Z,67.20
2017-12-30T01:57:55.098Z,67.10
2017-12-30T02:00:24.262Z,66.60
2017-12-30T02:02:51.871Z,66.70
2017-12-30T02:05:18.780Z,66.60
2017-12-30T02:07:46.599Z,67.40
2017-12-30T02:10:13.474Z,67.40
2017-12-30T02:12:41.126Z,67.20
2017-12-30T02:15:07.997Z,67.10
2017-12-30T02:17:34.909Z,66.50
2017-12-30T02:20:02.353Z,67.40
2017-12-30T02:22:31.281Z,68.00
2017-12-30T02:25:00.490Z,68.00
2017-12-30T02:27:27.416Z,68.00
2017-12-30T02:29:58.961Z,68.00
2017-12-30T02:32:27.601Z,68.10
2017-12-30T02:35:00.008Z,68.00
2017-12-30T02:37:26.906Z,68.60
2017-12-30T02:39:53.802Z,67.90
2017-12-30T02:42:20.688Z,68.30
2017-12-30T02:44:48.526Z,69.10
2017-12-30T02:47:15.553Z,69.10
2017-12-30T02:49:42.625Z,69.60
2017-12-30T02:52:12.894Z,69.60
2017-12-30T02:54:40.667Z,69.90
2017-12-30T02:57:14.293Z,69.40
2017-12-30T02:59:41.150Z,69.10
2017-12-30T03:02:08.025Z,69.50
2017-12-30T03:04:35.792Z,69.10
2017-12-30T03:07:04.980Z,68.70
2017-12-30T03:09:32.785Z,68.60
2017-12-30T03:11:59.950Z,68.80
2017-12-30T03:14:26.979Z,68.80
2017-12-30T03:16:53.904Z,68.90
2017-12-30T03:19:20.769Z,68.90
2017-12-30T03:21:47.790Z,70.30
2017-12-30T03:24:14.741Z,70.20
2017-12-30T03:26:41.838Z,71.10
2017-12-30T03:29:08.757Z,70.60
2017-12-30T03:31:36.070Z,70.80
2017-12-30T03:34:03.593Z,70.90
2017-12-30T03:36:30.499Z,70.90
2017-12-30T03:38:57.375Z,70.20
2017-12-30T03:41:24.286Z,71.00
2017-12-30T03:43:55.343Z,71.20
2017-12-30T03:46:23.005Z,71.50
2017-12-30T03:48:50.633Z,72.10
2017-12-30T03:51:17.571Z,72.70
2017-12-30T03:53:44.449Z,71.10
2017-12-30T03:56:12.171Z,71.30
2017-12-30T03:58:39.279Z,71.10
2017-12-30T04:01:06.222Z,71.20
2017-12-30T04:03:34.849Z,71.30
2017-12-30T04:06:01.839Z,71.30
2017-12-30T04:08:28.734Z,70.60
2017-12-30T04:10:55.801Z,70.70
2017-12-30T04:13:22.718Z,70.40
2017-12-30T04:15:49.660Z,70.30
2017-12-30T04:18:17.551Z,70.40
2017-12-30T04:20:44.438Z,70.20
2017-12-30T04:23:11.386Z,70.70
2017-12-30T04:25:38.385Z,70.60
2017-12-30T04:28:05.265Z,70.40
2017-12-30T04:30:36.118Z,71.80
2017-12-30T04:33:07.029Z,71.30
2017-12-30T04:35:33.878Z,72.00
2017-12-30T04:38:01.535Z,73.10
2017-12-30T04:40:31.794Z,73.10
2017-12-30T04:43:00.887Z,72.30
2017-12-30T04:45:30.937Z,72.20
2017-12-30T04:48:00.770Z,72.10
2017-12-30T04:50:35.998Z,72.70
2017-12-30T04:55:59.838Z,72.40
2017-12-30T04:58:26.716Z,72.50
2017-12-30T05:00:53.585Z,72.00
2017-12-30T05:03:20.443Z,72.20
2017-12-30T05:05:50.081Z,71.80
2017-12-30T05:08:19.533Z,72.10
2017-12-30T05:10:47.192Z,72.60
2017-12-30T05:13:20.214Z,73.50
2017-12-30T05:15:47.089Z,73.40
2017-12-30T05:18:19.530Z,72.70
2017-12-30T05:26:46.250Z,72.30
2017-12-30T05:29:13.656Z,72.50
2017-12-30T05:37:53.849Z,73.00
2017-12-30T05:40:20.873Z,73.20
2017-12-30T05:48:52.725Z,73.60
2017-12-30T05:54:55.828Z,73.70
2017-12-30T05:57:22.681Z,73.70
2017-12-30T05:59:49.532Z,73.70
2017-12-30T06:17:04.153Z,75.00
2017-12-30T06:19:39.719Z,74.70
2017-12-30T06:22:06.586Z,74.90
2017-12-30T06:24:48.406Z,74.40
2017-12-30T06:30:08.905Z,74.70
2017-12-30T06:39:47.022Z,74.70
2017-12-30T06:42:17.938Z,74.70
2017-12-30T06:44:48.478Z,74.10
2017-12-30T06:47:23.239Z,74.50
2017-12-30T06:54:17.138Z,74.60
2017-12-30T06:59:57.391Z,74.90
2017-12-30T07:02:24.353Z,75.10
2017-12-30T07:04:52.149Z,74.70
2017-12-30T07:22:39.850Z,73.60
2017-12-30T07:30:30.779Z,73.10
2017-12-30T07:32:57.651Z,73.10
2017-12-30T07:35:25.256Z,73.40
2017-12-30T07:37:52.138Z,73.40
2017-12-30T07:40:19.194Z,72.80
2017-12-30T07:42:46.229Z,72.20
2017-12-30T07:45:13.185Z,72.30
2017-12-30T07:47:40.850Z,72.40
2017-12-30T07:50:07.717Z,72.40
2017-12-30T07:52:35.759Z,72.40
2017-12-30T07:55:02.715Z,72.30
2017-12-30T07:57:30.551Z,72.30
2017-12-30T07:59:57.564Z,72.20
2017-12-30T08:02:25.430Z,71.60
2017-12-30T08:04:52.387Z,71.50
2017-12-30T08:07:19.298Z,71.10
2017-12-30T08:09:46.194Z,71.20
2017-12-30T08:12:13.112Z,71.30
2017-12-30T08:14:40.711Z,70.20
2017-12-30T08:17:08.322Z,69.20
2017-12-30T08:19:35.918Z,69.00
2017-12-30T08:22:02.769Z,68.80
2017-12-30T08:24:29.629Z,68.50
2017-12-30T08:26:57.270Z,68.00
2017-12-30T08:29:24.193Z,67.90
2017-12-30T08:31:51.085Z,67.60
2017-12-30T08:34:17.966Z,67.80
2017-12-30T08:36:44.850Z,67.00
2017-12-30T08:39:11.690Z,67.30
2017-12-30T08:41:38.533Z,66.80
2017-12-30T08:44:05.424Z,67.20
2017-12-30T08:46:32.297Z,66.20
2017-12-30T08:48:59.173Z,66.10
2017-12-30T08:51:26.030Z,65.90
2017-12-30T08:53:53.639Z,64.80
2017-12-30T08:56:20.518Z,64.80
2017-12-30T08:58:47.364Z,65.80
2017-12-30T09:01:14.210Z,65.00
2017-12-30T09:03:41.092Z,63.90
2017-12-30T09:06:07.950Z,64.90
2017-12-30T09:08:34.842Z,65.50
2017-12-30T09:11:01.709Z,65.40
2017-12-30T09:13:29.302Z,65.90
2017-12-30T09:15:56.162Z,65.80
2017-12-30T09:18:23.021Z,64.00
2017-12-30T09:20:49.906Z,62.50
2017-12-30T09:23:16.871Z,62.30
2017-12-30T09:25:43.885Z,63.60
2017-12-30T09:28:10.766Z,62.00
2017-12-30T09:30:37.654Z,62.30
2017-12-30T09:33:05.438Z,63.20
2017-12-30T09:35:32.307Z,63.00
2017-12-30T09:37:59.189Z,60.80
2017-12-30T09:40:26.069Z,60.30
2017-12-30T09:42:53.763Z,62.40
2017-12-30T09:45:21.426Z,63.10
2017-12-30T09:47:48.326Z,63.10
2017-12-30T09:50:15.195Z,64.00
2017-12-30T09:52:42.773Z,63.30
2017-12-30T09:55:09.618Z,63.30
2017-12-30T09:57:36.459Z,64.70
2017-12-30T10:00:03.366Z,65.60
2017-12-30T10:02:30.986Z,66.30
2017-12-30T10:04:57.887Z,65.40
2017-12-30T10:07:25.451Z,64.20
2017-12-30T10:09:53.054Z,64.80
2017-12-30T10:12:19.954Z,64.80
2017-12-30T10:14:47.538Z,63.50
2017-12-30T10:17:14.398Z,63.40
2017-12-30T10:19:41.290Z,61.80
2017-12-30T10:22:08.889Z,59.90
2017-12-30T10:24:35.738Z,59.80
2017-12-30T10:27:02.626Z,58.30
2017-12-30T10:29:29.511Z,57.40
2017-12-30T10:31:56.426Z,56.40
2017-12-30T10:34:23.301Z,56.40
2017-12-30T10:36:50.150Z,56.50
2017-12-30T10:39:17.075Z,56.60
2017-12-30T10:41:43.922Z,57.10
2017-12-30T10:44:11.739Z,57.70
2017-12-30T10:46:38.618Z,56.40
2017-12-30T10:49:06.246Z,57.40
2017-12-30T10:51:33.868Z,57.50
2017-12-30T10:54:00.718Z,57.40
2017-12-30T10:56:27.609Z,57.60
2017-12-30T10:58:55.258Z,57.00
2017-12-30T11:01:22.152Z,56.90
2017-12-30T11:03:48.990Z,54.70
2017-12-30T11:06:16.248Z,53.70
2017-12-30T11:08:43.900Z,54.80
2017-12-30T11:11:11.469Z,55.80
2017-12-30T11:13:38.354Z,55.80
2017-12-30T11:16:05.237Z,57.00
2017-12-30T11:18:32.106Z,55.40
2017-12-30T11:20:58.966Z,55.00
2017-12-30T11:23:26.015Z,52.90
2017-12-30T11:25:52.993Z,51.40
2017-12-30T11:28:20.576Z,49.60
2017-12-30T11:30:47.562Z,50.10
2017-12-30T11:33:14.446Z,48.40
2017-12-30T11:35:41.281Z,48.70
2017-12-30T11:38:08.886Z,51.20
2017-12-30T11:40:35.730Z,51.10
2017-12-30T11:43:02.589Z,52.70
2017-12-30T11:45:29.446Z,54.00
2017-12-30T11:47:57.107Z,55.90
2017-12-30T11:50:23.969Z,55.90
2017-12-30T11:52:51.570Z,55.90
2017-12-30T11:55:18.443Z,55.90
2017-12-30T11:57:45.302Z,56.10
2017-12-30T12:00:12.399Z,56.10
2017-12-30T12:02:40.229Z,56.10
2017-12-30T12:05:07.103Z,56.40
2017-12-30T12:07:34.689Z,55.90
2017-12-30T12:10:01.606Z,55.90
2017-12-30T12:12:28.489Z,54.80
2017-12-30T12:14:55.385Z,54.00
2017-12-30T12:17:22.233Z,53.10
2017-12-30T12:19:49.394Z,53.40
2017-12-30T12:22:16.471Z,53.90
2017-12-30T12:24:43.326Z,54.80
2017-12-30T12:27:10.357Z,54.00
2017-12-30T12:29:37.220Z,54.80
2017-12-30T12:32:04.106Z,55.50
2017-12-30T12:34:30.959Z,56.10
2017-12-30T12:36:58.568Z,56.80
2017-12-30T12:39:26.222Z,57.30
2017-12-30T12:41:53.127Z,57.30
2017-12-30T12:44:20.026Z,57.90
2017-12-30T12:46:47.770Z,57.60
2017-12-30T12:49:14.654Z,58.50
2017-12-30T12:51:41.565Z,57.70
2017-12-30T12:54:08.422Z,58.20
2017-12-30T12:56:35.298Z,57.50
2017-12-30T12:59:02.150Z,57.80
2017-12-30T13:01:29.034Z,57.40
2017-12-30T13:03:55.974Z,57.50
2017-12-30T13:06:22.876Z,56.90
2017-12-30T13:08:50.443Z,57.30
2017-12-30T13:11:17.334Z,57.20
2017-12-30T13:13:44.230Z,57.50
2017-12-30T13:16:11.846Z,57.70
2017-12-30T13:18:38.681Z,57.70
2017-12-30T13:21:05.546Z,57.80
2017-12-30T13:23:34.574Z,58.00
2017-12-30T13:26:02.285Z,58.40
2017-12-30T13:28:29.182Z,58.90
2017-12-30T13:30:57.116Z,57.50
2017-12-30T13:33:24.358Z,57.20
2017-12-30T13:35:54.003Z,57.00
2017-12-30T13:38:21.591Z,56.70
2017-12-30T13:40:48.646Z,56.90
2017-12-30T13:43:15.790Z,58.60
2017-12-30T13:45:42.827Z,59.30
2017-12-30T13:48:09.737Z,59.70
2017-12-30T13:50:36.722Z,60.00
2017-12-30T13:53:05.692Z,60.30
2017-12-30T13:55:36.154Z,60.70
2017-12-30T13:58:03.073Z,60.50
2017-12-30T14:00:29.930Z,60.80
2017-12-30T14:02:56.798Z,62.30
2017-12-30T14:05:23.663Z,62.60
2017-12-30T14:07:50.513Z,60.90
2017-12-30T14:10:18.586Z,61.90
2017-12-30T14:12:45.589Z,61.90
2017-12-30T14:15:12.478Z,62.80
2017-12-30T14:17:40.094Z,61.90
2017-12-30T14:20:07.106Z,61.70
2017-12-30T14:22:34.781Z,61.00
2017-12-30T14:25:02.621Z,60.60
2017-12-30T14:27:30.410Z,61.60
2017-12-30T14:29:57.266Z,61.60
2017-12-30T14:32:24.346Z,60.90
2017-12-30T14:34:51.411Z,61.90
2017-12-30T14:37:18.246Z,61.50
2017-12-30T14:39:45.282Z,63.30
2017-12-30T14:42:12.225Z,63.40
2017-12-30T14:44:39.143Z,64.60
2017-12-30T14:47:06.106Z,64.00
2017-12-30T14:49:33.095Z,64.00
2017-12-30T14:51:59.987Z,63.60
2017-12-30T14:54:26.831Z,63.60
2017-12-30T14:56:53.705Z,63.90
2017-12-30T14:59:20.710Z,63.60
2017-12-30T15:01:47.650Z,63.70
2017-12-30T15:04:15.446Z,65.00
2017-12-30T15:06:42.289Z,65.00
2017-12-30T15:09:09.274Z,64.70
2017-12-30T15:11:36.158Z,64.10
2017-12-30T15:14:03.101Z,63.50
2017-12-30T15:16:30.010Z,63.40
2017-12-30T15:18:56.855Z,64.10
2017-12-30T15:21:23.739Z,64.10
2017-12-30T15:23:50.626Z,64.20
2017-12-30T15:26:18.246Z,63.70
2017-12-30T15:28:45.181Z,63.70
2017-12-30T15:31:13.281Z,63.90
2017-12-30T15:33:40.262Z,64.30
2017-12-30T15:36:07.890Z,65.20
2017-12-30T15:38:35.110Z,65.20
2017-12-30T15:44:06.654Z,66.10
2017-12-30T15:46:33.593Z,66.00
2017-12-30T15:49:02.739Z,64.40
2017-12-30T15:51:37.709Z,64.50
2017-12-30T15:54:04.757Z,65.60
2017-12-30T15:57:01.334Z,66.60
2017-12-30T16:10:44.866Z,66.80
2017-12-30T16:13:25.498Z,66.90
2017-12-30T16:15:55.682Z,66.10
2017-12-30T16:18:25.328Z,64.90
2017-12-30T16:21:00.238Z,65.80
2017-12-30T16:23:39.266Z,65.60
2017-12-30T16:26:13.923Z,68.50
2017-12-30T16:33:18.716Z,70.30
2017-12-30T16:35:53.867Z,71.80
2017-12-30T16:38:20.748Z,74.00
2017-12-30T16:40:54.115Z,75.00
2017-12-30T16:43:21.210Z,76.20
2017-12-30T16:45:48.146Z,76.20
2017-12-30T16:48:15.062Z,76.70
2017-12-30T16:50:42.172Z,76.60
2017-12-30T16:53:09.877Z,78.00
2017-12-30T16:55:37.099Z,78.00
2017-12-30T16:58:04.046Z,78.50
2017-12-30T17:00:30.934Z,78.90
2017-12-30T17:02:58.498Z,78.30
2017-12-30T17:05:25.505Z,78.80
2017-12-30T17:07:52.498Z,78.60
2017-12-30T17:10:20.171Z,79.40
2017-12-30T17:12:47.227Z,79.30
2017-12-30T17:15:14.098Z,79.60
2017-12-30T17:17:40.996Z,79.20
2017-12-30T17:20:07.918Z,79.20
2017-12-30T17:22:35.512Z,79.90
2017-12-30T17:25:02.810Z,79.80
2017-12-30T17:27:29.858Z,80.10
2017-12-30T17:29:57.490Z,80.60
2017-12-30T17:32:24.567Z,80.50
2017-12-30T17:34:51.494Z,81.10
2017-12-30T17:37:18.373Z,81.00
2017-12-30T17:39:45.977Z,81.50
2017-12-30T17:42:12.889Z,81.50
2017-12-30T17:44:40.490Z,81.80
2017-12-30T17:47:08.384Z,82.20
2017-12-30T17:49:36.037Z,82.00
2017-12-30T17:52:02.930Z,82.00
2017-12-30T17:54:29.910Z,81.30
2017-12-30T17:56:56.822Z,81.10
2017-12-30T17:59:23.662Z,81.60
2017-12-30T18:01:50.774Z,81.90
2017-12-30T18:04:17.794Z,81.80
2017-12-30T18:06:44.703Z,82.10
2017-12-30T18:09:11.660Z,82.20
2017-12-30T18:11:38.592Z,81.70
2017-12-30T18:14:05.479Z,81.50
2017-12-30T18:16:32.371Z,82.10
2017-12-30T18:18:59.350Z,82.40
2017-12-30T18:21:26.370Z,82.70
2017-12-30T18:23:53.464Z,82.30
2017-12-30T18:26:21.199Z,82.60
2017-12-30T18:28:48.058Z,82.60
2017-12-30T18:31:15.007Z,82.40
2017-12-30T18:33:41.886Z,82.70
2017-12-30T18:36:09.062Z,82.90
2017-12-30T18:38:36.890Z,82.90
2017-12-30T18:41:03.942Z,82.90
2017-12-30T18:43:30.887Z,82.90
2017-12-30T18:45:57.768Z,83.40
2017-12-30T18:48:24.910Z,84.40
2017-12-30T18:50:51.815Z,83.90
2017-12-30T18:53:18.694Z,84.00
2017-12-30T18:55:46.302Z,84.60
2017-12-30T18:58:13.202Z,84.50
2017-12-30T19:00:40.066Z,85.10
2017-12-30T19:03:08.055Z,84.70
2017-12-30T19:05:35.727Z,85.30
2017-12-30T19:08:03.410Z,84.90
2017-12-30T19:10:31.049Z,84.40
2017-12-30T19:12:57.937Z,84.40
2017-12-30T19:15:25.926Z,84.80
2017-12-30T19:17:52.911Z,84.80
2017-12-30T19:20:19.893Z,84.50
2017-12-30T19:22:47.036Z,84.50
2017-12-30T19:25:14.786Z,84.70
2017-12-30T19:27:41.710Z,84.60
2017-12-30T19:30:09.355Z,85.20
2017-12-30T19:32:36.239Z,85.20
2017-12-30T19:35:03.270Z,84.40
2017-12-30T19:37:30.177Z,84.40
2017-12-30T19:39:57.235Z,85.10
2017-12-30T19:42:24.263Z,85.20
2017-12-30T19:44:51.233Z,85.30
2017-12-30T19:47:18.225Z,85.60
2017-12-30T19:49:45.170Z,85.50
2017-12-30T19:52:13.169Z,85.20
2017-12-30T19:54:40.287Z,84.70
2017-12-30T19:57:07.261Z,84.40
2017-12-30T19:59:34.111Z,83.80
2017-12-30T20:02:01.607Z,84.10
2017-12-30T20:04:28.835Z,84.90
2017-12-30T20:06:55.865Z,85.20
2017-12-30T20:09:22.903Z,85.20
2017-12-30T20:11:50.614Z,84.40
2017-12-30T20:14:17.595Z,84.40
2017-12-30T20:16:44.675Z,84.40
2017-12-30T20:19:11.742Z,84.90
2017-12-30T20:21:38.628Z,85.00
2017-12-30T20:24:08.910Z,85.60
2017-12-30T20:26:35.761Z,85.50
2017-12-30T20:29:02.675Z,86.30
2017-12-30T20:31:29.561Z,85.70
2017-12-30T20:33:57.409Z,85.30
2017-12-30T20:36:24.371Z,85.30
2017-12-30T20:38:51.345Z,85.20
2017-12-30T20:41:18.267Z,85.30
2017-12-30T20:43:45.178Z,85.70
2017-12-30T20:46:12.922Z,87.00
2017-12-30T20:48:40.818Z,86.20
2017-12-30T20:51:07.752Z,86.10
2017-12-30T20:53:34.673Z,86.10
2017-12-30T20:56:01.734Z,86.00
2017-12-30T20:58:28.697Z,86.70
2017-12-30T21:00:55.790Z,87.00
2017-12-30T21:03:22.847Z,86.80
2017-12-30T21:05:49.835Z,87.10
2017-12-30T21:08:16.758Z,86.50
2017-12-30T21:10:43.670Z,86.20
2017-12-30T21:13:10.719Z,85.80
2017-12-30T21:15:37.735Z,85.50
2017-12-30T21:18:04.626Z,85.40
2017-12-30T21:20:32.334Z,86.90
2017-12-30T21:22:59.254Z,86.80
2017-12-30T21:25:26.222Z,86.60
2017-12-30T21:27:53.315Z,86.70
2017-12-30T21:30:20.358Z,86.20
2017-12-30T21:32:53.066Z,86.10
2017-12-30T21:35:20.666Z,86.40
2017-12-30T21:37:47.822Z,86.40
2017-12-30T21:40:15.018Z,86.40
2017-12-30T21:42:42.094Z,86.60
2017-12-30T21:45:09.171Z,86.40
2017-12-30T21:47:36.168Z,86.70
2017-12-30T21:50:03.139Z,87.70
2017-12-30T21:52:30.167Z,87.90
2017-12-30T21:54:57.063Z,87.80
2017-12-30T21:57:24.737Z,87.90
2017-12-30T21:59:51.678Z,87.90
2017-12-30T22:02:19.306Z,86.90
2017-12-30T22:04:46.142Z,86.80
2017-12-30T22:07:13.025Z,87.50
2017-12-30T22:09:40.014Z,87.30
2017-12-30T22:12:06.898Z,87.60
2017-12-30T22:14:35.573Z,88.00
2017-12-30T22:17:02.611Z,87.90
2017-12-30T22:19:29.561Z,87.50
2017-12-30T22:34:52.290Z,87.40
2017-12-30T22:55:28.298Z,86.90
2017-12-30T22:57:57.247Z,87.10
2017-12-30T23:19:58.779Z,86.60
2017-12-30T23:22:54.004Z,86.60
2017-12-30T23:25:31.584Z,86.90
2017-12-30T23:28:02.050Z,86.70
2017-12-30T23:34:12.239Z,86.10
2017-12-30T23:36:39.164Z,86.60
2017-12-30T23:48:09.907Z,86.50
